»·PEaware :: N827KC KSAN-KSBP

N827KC :: KSAN-KSBP

FLIGHT INFORMATION

Flight Status: Arrived
Operator: Privately registered:
United States
More flights under this callsign
Pilot: Kevin C. (631)
Aircraft: Unknown
(PIPA)
More flights by this aircraft type
Origin: KSAN San Diego Intl-Lindbergh
United States
Destination: KSBP San Luis Co Regl
United States
More flights between these airports :: More routes between these airports
Route: +
File this flight plan on PilotEdge
Remarks:
Altitude:
(Current/Filed)
6,500ft
Speed:
(Current/Filed)
0kts
Departed: 28-Sep-17 08:18 PM
Arrived: 28-Sep-17 09:41 PM
Distance/Time
Traveled:
228nm/1:23
Distance/Time
To Go:
Arrived

Flight Plot

Page will automatically refresh every two minutes.

Flight plan parsing failed; only flown route is shown


Map Options




Map Legend


Flown Route
Filed Route
Departure Airport
Arrival Airport
Navaid (VOR, NDB)
Fix

Horizontal Profiles

Position Reports

Time Latitude Longitude Heading Altitude Ground
Speed
28-Sep-17 20:15 32.732412 -117.176642 194 20ft 0kts
28-Sep-17 20:16 32.732412 -117.176642 194 20ft 0kts
28-Sep-17 20:17 32.732412 -117.176642 194 20ft 0kts
28-Sep-17 20:18 32.731978 -117.176696 153 20ft 11kts
28-Sep-17 20:19 32.731004 -117.175532 140 20ft 0kts
28-Sep-17 20:20 32.731004 -117.175532 140 20ft 0kts
28-Sep-17 20:21 32.730326 -117.175318 208 20ft 14kts
28-Sep-17 20:22 32.737196 -117.205688 288 677ft 145kts
28-Sep-17 20:23 32.776861 -117.244461 321 1847ft 150kts
28-Sep-17 20:24 32.806756 -117.271286 321 1972ft 170kts
28-Sep-17 20:25 32.844377 -117.305209 321 1966ft 167kts
28-Sep-17 20:26 32.880803 -117.338084 321 1963ft 160kts
28-Sep-17 20:27 32.916054 -117.369993 321 1963ft 158kts
28-Sep-17 20:28 32.950907 -117.401514 321 1963ft 158kts
28-Sep-17 20:29 32.985957 -117.433039 321 2241ft 161kts
28-Sep-17 20:30 33.026650 -117.450172 11 3239ft 170kts
28-Sep-17 20:31 33.072142 -117.437317 11 4276ft 165kts
28-Sep-17 20:32 33.113022 -117.425759 11 5695ft 152kts
28-Sep-17 20:33 33.155663 -117.414023 11 6470ft 180kts
28-Sep-17 20:34 33.203980 -117.417348 340 6459ft 179kts
28-Sep-17 20:35 33.242749 -117.453295 316 6459ft 177kts
28-Sep-17 20:36 33.276399 -117.496064 311 6486ft 176kts
28-Sep-17 20:37 33.307458 -117.541253 309 6488ft 176kts
28-Sep-17 20:38 33.337161 -117.587790 309 6489ft 176kts
28-Sep-17 20:39 33.369091 -117.632190 311 6490ft 176kts
28-Sep-17 20:40 33.400254 -117.676275 310 6489ft 176kts
28-Sep-17 20:41 33.432005 -117.721600 308 6486ft 181kts
28-Sep-17 20:42 33.464668 -117.768890 309 6484ft 186kts
28-Sep-17 20:43 33.497231 -117.817079 306 6482ft 187kts
28-Sep-17 20:44 33.521071 -117.871357 281 6482ft 187kts
28-Sep-17 20:45 33.531682 -117.932215 281 6479ft 187kts
28-Sep-17 20:46 33.542291 -117.992913 282 6478ft 186kts
28-Sep-17 20:47 33.570816 -118.040958 319 6476ft 182kts
28-Sep-17 20:48 33.608361 -118.081213 318 6472ft 181kts
28-Sep-17 20:49 33.645677 -118.121368 319 6471ft 179kts
28-Sep-17 20:50 33.682569 -118.161099 319 6469ft 178kts
28-Sep-17 20:51 33.719320 -118.200673 320 6467ft 177kts
28-Sep-17 20:52 33.755721 -118.239933 320 6464ft 175kts
28-Sep-17 20:53 33.791705 -118.278754 319 6469ft 173kts
28-Sep-17 20:54 33.827373 -118.317271 319 6469ft 172kts
28-Sep-17 20:55 33.862797 -118.355465 318 6473ft 172kts
28-Sep-17 20:56 33.898452 -118.393894 318 6477ft 173kts
28-Sep-17 20:57 33.935055 -118.433503 318 6484ft 181kts
28-Sep-17 20:58 33.981452 -118.457307 339 6485ft 184kts
28-Sep-17 20:59 34.029366 -118.479761 339 6486ft 185kts
28-Sep-17 21:00 34.077208 -118.502540 339 6486ft 185kts
28-Sep-17 21:01 34.124603 -118.525235 338 6489ft 185kts
28-Sep-17 21:02 34.171965 -118.548077 337 6496ft 180kts
28-Sep-17 21:03 34.216054 -118.574182 306 6483ft 178kts
28-Sep-17 21:04 34.245109 -118.621899 309 6493ft 177kts
28-Sep-17 21:05 34.274339 -118.666971 309 6495ft 177kts
28-Sep-17 21:06 34.305406 -118.713358 310 6496ft 177kts
28-Sep-17 21:07 34.336824 -118.759469 310 6498ft 178kts
28-Sep-17 21:08 34.364944 -118.808017 281 6500ft 181kts
28-Sep-17 21:09 34.374230 -118.867776 281 6500ft 181kts
28-Sep-17 21:10 34.383510 -118.927781 281 6500ft 181kts
28-Sep-17 21:11 34.392745 -118.987737 282 6500ft 181kts
28-Sep-17 21:12 34.401907 -119.047459 282 6500ft 181kts
28-Sep-17 21:13 34.411030 -119.107434 282 6497ft 181kts
28-Sep-17 21:14 34.420040 -119.167374 282 6495ft 181kts
28-Sep-17 21:15 34.428930 -119.227210 282 6493ft 181kts
28-Sep-17 21:16 34.437716 -119.287038 282 6493ft 187kts
28-Sep-17 21:17 34.447595 -119.352658 282 6490ft 205kts
28-Sep-17 21:18 34.458492 -119.421506 282 6495ft 210kts
28-Sep-17 21:19 34.470333 -119.491398 282 6493ft 212kts
28-Sep-17 21:20 34.482921 -119.561218 282 6491ft 213kts
28-Sep-17 21:21 34.495650 -119.631218 282 6491ft 213kts
28-Sep-17 21:22 34.508377 -119.701078 282 6490ft 213kts
28-Sep-17 21:23 34.521186 -119.771267 282 6491ft 213kts
28-Sep-17 21:24 34.536417 -119.839905 309 6493ft 213kts
28-Sep-17 21:25 34.581036 -119.885327 319 6522ft 204kts
28-Sep-17 21:26 34.622786 -119.930287 318 6534ft 200kts
28-Sep-17 21:27 34.663699 -119.975922 318 6546ft 200kts
28-Sep-17 21:28 34.704351 -120.022041 318 6554ft 201kts
28-Sep-17 21:29 34.745002 -120.068580 317 6554ft 201kts
28-Sep-17 21:30 34.785646 -120.115394 317 6554ft 201kts
28-Sep-17 21:31 34.830478 -120.154947 327 6554ft 200kts
28-Sep-17 21:32 34.876654 -120.191796 327 6554ft 199kts
28-Sep-17 21:33 34.923136 -120.228300 327 6283ft 194kts
28-Sep-17 21:34 34.966842 -120.261759 327 5265ft 181kts
28-Sep-17 21:35 35.003447 -120.300962 313 4501ft 164kts
28-Sep-17 21:36 35.032756 -120.339538 315 4499ft 157kts
28-Sep-17 21:37 35.067188 -120.373218 322 4499ft 161kts
28-Sep-17 21:38 35.098772 -120.411014 302 3615ft 157kts
28-Sep-17 21:39 35.121224 -120.454344 302 2615ft 148kts
28-Sep-17 21:40 35.142748 -120.495945 304 2501ft 156kts
28-Sep-17 21:41 35.174434 -120.533705 315 1938ft 150kts
28-Sep-17 21:42 35.194692 -120.567359 306 1290ft 106kts
28-Sep-17 21:43 35.209518 -120.592946 304 1068ft 91kts
28-Sep-17 21:44 35.224261 -120.618464 308 698ft 93kts
28-Sep-17 21:45 35.236033 -120.638743 308 214ft 31kts
28-Sep-17 21:46 35.237440 -120.639916 8 214ft 0kts
28-Sep-17 21:47 35.237441 -120.639915 8 214ft 0kts
28-Sep-17 21:48 35.238415 -120.639819 330 214ft 6kts
28-Sep-17 21:49 35.238336 -120.639982 166 214ft 0kts
28-Sep-17 21:50 35.238336 -120.639982 166 214ft 0kts
28-Sep-17 21:51 35.238336 -120.639982 166 214ft 0kts
28-Sep-17 21:52 35.238336 -120.639982 166 214ft 0kts

Navigation Log

Ident Type
Flight plan parsing failed, navigation log unavailable